Airfield :
LOGIN :

Register | Disclaimer

   EN    FR    IT 

 










Legend :    VFR   Marginal VFR   IFR   Intensive IFR   Very Intensive IFR
Visi :
Ceiling :
>= 8 km
>= 3000ft
5 to 8 km
1000 to 3000 ft
1500m to 5 km
500 to 1000 ft
800 to 1500m
200 to 500 ft
< 800m
< 200 ft
Symbols :   Thunderstorms  Fog  Heavy snow  Heavy precipitations  Wind > 20 kt
SIGMETs :     Misc.  Thunderstorms  Icing  Turbulence  Mountain Waves  Volcanic Ashes







- Airport Elevation : 600 ft
- IATA code : VIE


LOWW - Vienna Schwechat

CURRENT METAR :
  • 240520Z 23004KT 1800 0700SW R29/1400D BCFG BR SCT001 OVC002 04/04 Q1019 TEMPO 0700 FG VV001

EXPIRED METARs :
  • 240450Z 24003KT 180V260 2000 0800SW R29/1000N BCFG SCT001 OVC002 04/04 Q1019 TEMPO 0700 VV001
  • 240420Z 24003KT 210V270 2000 1100SW R29/P1500D BR VV002 04/04 Q1019 TEMPO 1200 VV001
  • 240350Z 21003KT 120V230 1400 R29/1400U BR VV002 04/04 Q1019 TEMPO VV001
  • 240320Z 23003KT 190V250 1900 1100E R29/P1500D BR FEW000 OVC001 04/04 Q1019 BECMG 1200 BR
  • 240250Z 13003KT 110V170 2500 BR FEW001 OVC002 04/04 Q1019 BECMG 1200 BCFG TEMPO VV001

TAF COR TAF LOWW
Valid from the 24 at 06:00 until the 25 at 12:00 UTC


240515Z 2406/2512 VRB02KT 2000 BR BKN002 OVC003 TX11/2512Z TN04/2406Z
TEMPO 2406/2410 0700 FG VV001
BECMG 2410/2412 14007KT 3500 OVC003
BECMG 2418/2421 1500 BKN002 OVC003
TEMPO 2421/2503 0700 FG VV001
BECMG 2506/2509 16014KT 5000 OVC005
BECMG 2509/2512 8000 NSW SCT010
No reported NOTAMs for that airfield.



MET'MAP, your aeronautical weather chart ! - Copyright ORBIFLY December 2007 - Disclaimer

ORBIFLY MET'MAP TEAM :

Programming & Development : Alexandra Zaïnal
Concept & Development : Baudouin d'Aumeries
Co-Development & Prog : Marc-Olivier Méhu
Technical & hardware support : Manuel Goepfert

Contact : metmap@orbifly.com




SOURCES & CREDITS :

   NOAA